Time;durP1;ratioP1;P1;durP2;ratioP2;P2;SDS_P1;SDS_P2;PMS_P1;PMS_P2;Temp;Humidity;BMP_temperature;BMP_pressure;BME280_temperature;BME280_humidity;BME280_pressure;Samples;Min_cycle;Max_cycle;Signal;HPM_P1;HPM_P2
2022/04/10 00:01:20;;;;;;;6.03;1.70;;;6.60;99.90;;;;;;5030260;28;20198;-78
2022/04/10 00:03:47;;;;;;;5.57;1.90;;;6.50;99.90;;;;;;5030857;28;20233;-80
2022/04/10 00:06:14;;;;;;;13.60;2.63;;;6.50;99.90;;;;;;5030723;28;20226;-81
2022/04/10 00:08:41;;;;;;;8.47;2.00;;;6.50;99.90;;;;;;5033969;28;20221;-81
2022/04/10 00:11:10;;;;;;;10.23;1.90;;;6.50;99.90;;;;;;5050062;28;20202;-81
2022/04/10 00:13:37;;;;;;;12.07;3.20;;;6.40;99.90;;;;;;5050534;28;20892;-84
2022/04/10 00:16:04;;;;;;;10.30;2.23;;;6.40;99.90;;;;;;5049624;28;20217;-80
2022/04/10 00:18:31;;;;;;;6.43;1.63;;;6.40;99.90;;;;;;5039795;28;20599;-81
2022/04/10 00:20:59;;;;;;;11.40;2.03;;;6.40;99.90;;;;;;5030467;28;20210;-83
2022/04/10 00:23:27;;;;;;;10.13;2.20;;;6.30;99.90;;;;;;5029861;28;20206;-83
2022/04/10 00:25:54;;;;;;;7.60;1.93;;;6.30;99.90;;;;;;5038940;28;20293;-82
2022/04/10 00:28:22;;;;;;;3.60;1.50;;;6.30;99.90;;;;;;5033698;28;20222;-82
2022/04/10 00:30:49;;;;;;;9.60;1.80;;;6.30;99.90;;;;;;5029652;28;20206;-82
2022/04/10 00:33:16;;;;;;;4.53;1.50;;;6.40;99.90;;;;;;5029671;28;20211;-81
2022/04/10 00:35:44;;;;;;;4.53;1.50;;;6.30;99.90;;;;;;5040524;28;20306;-82
2022/04/10 00:38:12;;;;;;;8.77;1.83;;;6.20;99.90;;;;;;5049533;28;20245;-83
2022/04/10 00:40:38;;;;;;;7.03;1.80;;;6.30;99.90;;;;;;5032276;28;20219;-82
2022/04/10 00:43:05;;;;;;;9.33;1.97;;;6.20;99.90;;;;;;5024540;22;20494;-82
2022/04/10 00:45:34;;;;;;;7.33;1.93;;;6.20;99.90;;;;;;4991911;28;21011;-82
2022/04/10 00:48:00;;;;;;;5.83;1.50;;;6.20;99.90;;;;;;4989944;28;20227;-81
2022/04/10 00:50:27;;;;;;;6.07;1.83;;;6.20;99.90;;;;;;5004456;28;20207;-81
2022/04/10 00:52:57;;;;;;;7.93;1.93;;;6.20;99.90;;;;;;5009795;28;20251;-81
2022/04/10 00:55:24;;;;;;;10.57;1.90;;;6.10;99.90;;;;;;5005475;28;20208;-81
2022/04/10 00:57:51;;;;;;;9.37;1.80;;;6.20;99.90;;;;;;4989780;28;20196;-82
2022/04/10 01:00:18;;;;;;;8.13;1.97;;;6.10;99.90;;;;;;4989795;28;20196;-81
2022/04/10 01:02:47;;;;;;;9.50;2.37;;;6.10;99.90;;;;;;4988887;28;20299;-82
2022/04/10 01:05:13;;;;;;;3.07;1.50;;;6.10;99.90;;;;;;4988595;28;20522;-82
2022/04/10 01:07:41;;;;;;;7.67;1.80;;;6.00;99.90;;;;;;4989098;28;20251;-82
2022/04/10 01:10:08;;;;;;;5.00;1.83;;;6.00;99.90;;;;;;4988761;28;20250;-82
2022/04/10 01:12:35;;;;;;;4.87;1.53;;;6.00;99.90;;;;;;4988812;28;20207;-81
2022/04/10 01:15:02;;;;;;;9.47;2.30;;;6.00;99.90;;;;;;4989002;28;20207;-82
2022/04/10 01:17:30;;;;;;;14.93;2.33;;;6.00;99.90;;;;;;4988553;28;20200;-81
2022/04/10 01:19:59;;;;;;;9.73;2.30;;;5.90;99.90;;;;;;4987168;28;20192;-82
2022/04/10 01:22:40;;;;;;;5.13;1.60;;;5.90;99.90;;;;;;4997235;28;20243;-82
2022/04/10 01:25:09;;;;;;;5.80;1.67;;;6.00;99.90;;;;;;5007757;28;20202;-82
2022/04/10 01:27:37;;;;;;;5.10;1.73;;;6.10;99.90;;;;;;5007829;28;20289;-82
2022/04/10 01:30:06;;;;;;;7.67;1.40;;;6.10;99.90;;;;;;5008749;28;20234;-82
2022/04/10 01:32:33;;;;;;;5.53;1.30;;;6.20;99.90;;;;;;5007551;28;20211;-81
2022/04/10 01:35:02;;;;;;;9.33;1.73;;;6.20;99.90;;;;;;5008293;28;20199;-82
2022/04/10 01:37:29;;;;;;;5.93;1.83;;;6.20;99.90;;;;;;4988818;28;20208;-81
2022/04/10 01:39:58;;;;;;;6.97;2.03;;;6.20;99.90;;;;;;4988853;28;20254;-81
2022/04/10 01:42:25;;;;;;;4.63;1.93;;;6.30;99.90;;;;;;4988944;28;20254;-81
2022/04/10 01:44:52;;;;;;;8.13;1.40;;;6.30;99.90;;;;;;4990671;28;20600;-82
2022/04/10 01:47:19;;;;;;;10.87;1.90;;;6.30;99.90;;;;;;4988489;28;20309;-81
2022/04/10 01:49:47;;;;;;;6.60;1.87;;;6.40;99.90;;;;;;4990042;28;20210;-81
2022/04/10 01:52:14;;;;;;;7.20;2.00;;;6.30;99.90;;;;;;5003069;28;20199;-81
2022/04/10 01:54:41;;;;;;;9.87;1.67;;;6.20;99.90;;;;;;5005977;28;20231;-83
2022/04/10 01:57:10;;;;;;;9.03;2.30;;;6.20;99.90;;;;;;4988475;28;20208;-82
2022/04/10 01:59:37;;;;;;;11.97;2.00;;;6.20;99.90;;;;;;4986756;28;20846;-82
2022/04/10 02:02:04;;;;;;;5.03;1.63;;;6.20;99.90;;;;;;4986270;28;20204;-81
2022/04/10 02:04:31;;;;;;;7.80;2.03;;;6.20;99.90;;;;;;4987118;28;20219;-81
2022/04/10 02:06:58;;;;;;;10.27;2.03;;;6.20;99.90;;;;;;5001120;28;20321;-82
2022/04/10 02:09:25;;;;;;;8.93;1.53;;;6.20;99.90;;;;;;4993130;28;20624;-81
2022/04/10 02:11:52;;;;;;;4.50;2.00;;;6.20;99.90;;;;;;5000201;28;20210;-82
2022/04/10 02:14:20;;;;;;;6.00;1.93;;;6.20;99.90;;;;;;4986849;28;20208;-82
2022/04/10 02:16:47;;;;;;;6.27;2.03;;;6.20;99.90;;;;;;4986593;28;20212;-82
2022/04/10 02:19:14;;;;;;;4.77;1.40;;;6.20;99.90;;;;;;4989143;28;20215;-83
2022/04/10 02:21:41;;;;;;;4.90;1.50;;;6.20;99.90;;;;;;4988120;28;20211;-81
2022/04/10 02:24:09;;;;;;;5.10;1.23;;;6.20;99.90;;;;;;4987614;28;20212;-82
2022/04/10 02:26:36;;;;;;;7.80;1.80;;;6.30;99.90;;;;;;4987908;28;20235;-81
2022/04/10 02:29:03;;;;;;;6.17;2.37;;;6.40;99.90;;;;;;4988913;28;20241;-82
2022/04/10 02:31:31;;;;;;;10.57;1.70;;;6.30;99.90;;;;;;4988224;28;20212;-82
2022/04/10 02:33:58;;;;;;;4.33;1.50;;;6.30;99.90;;;;;;4990150;28;20223;-81
2022/04/10 02:36:25;;;;;;;7.37;1.50;;;6.20;99.90;;;;;;4990829;28;20207;-82
2022/04/10 02:38:52;;;;;;;6.77;1.50;;;6.30;99.90;;;;;;5009421;28;20218;-82
2022/04/10 02:41:18;;;;;;;5.33;1.60;;;6.30;99.90;;;;;;5015108;28;20211;-82
2022/04/10 02:43:45;;;;;;;4.80;1.97;;;6.30;99.90;;;;;;5013172;28;20223;-81
2022/04/10 02:46:12;;;;;;;5.13;1.40;;;6.30;99.90;;;;;;5003269;28;20599;-81
2022/04/10 02:48:41;;;;;;;6.77;1.80;;;6.30;99.90;;;;;;4989054;28;20224;-80
2022/04/10 02:51:09;;;;;;;7.43;1.60;;;6.20;99.90;;;;;;4988943;28;20223;-81
2022/04/10 02:53:35;;;;;;;12.40;3.50;;;6.20;99.90;;;;;;4995523;28;20532;-82
2022/04/10 02:56:03;;;;;;;6.37;1.50;;;6.20;99.90;;;;;;4987309;28;20242;-81
2022/04/10 02:58:29;;;;;;;6.33;1.73;;;6.10;99.90;;;;;;4986659;28;20196;-81
2022/04/10 03:00:56;;;;;;;9.73;2.07;;;6.20;99.90;;;;;;4986671;28;20216;-81
2022/04/10 03:03:23;;;;;;;4.87;1.37;;;6.20;99.90;;;;;;4987688;28;20667;-82
2022/04/10 03:05:51;;;;;;;7.40;1.63;;;6.20;99.90;;;;;;4997103;28;20807;-82
2022/04/10 03:08:20;;;;;;;4.77;1.97;;;6.30;99.90;;;;;;5007516;28;20514;-82
2022/04/10 03:10:47;;;;;;;5.67;1.77;;;6.30;99.90;;;;;;5007910;28;20203;-84
2022/04/10 03:13:15;;;;;;;5.53;1.27;;;6.30;99.90;;;;;;4998477;28;20211;-80
2022/04/10 03:15:42;;;;;;;7.90;1.97;;;6.30;99.90;;;;;;4987795;28;20196;-81
2022/04/10 03:18:10;;;;;;;10.17;3.13;;;6.30;99.90;;;;;;4988703;28;20214;-80
2022/04/10 03:20:37;;;;;;;6.43;1.43;;;6.30;99.90;;;;;;4995476;28;20199;-81
2022/04/10 03:23:08;;;;;;;6.30;1.37;;;6.30;99.90;;;;;;4988830;28;20215;-80
2022/04/10 03:25:36;;;;;;;9.77;1.50;;;6.30;99.90;;;;;;4986997;28;20247;-82
2022/04/10 03:28:03;;;;;;;4.23;1.37;;;6.20;99.90;;;;;;4988470;28;20223;-81
2022/04/10 03:30:30;;;;;;;5.13;1.50;;;6.20;99.90;;;;;;4993668;28;20203;-80
2022/04/10 03:32:57;;;;;;;5.77;1.70;;;6.20;99.90;;;;;;4997911;28;20204;-81
2022/04/10 03:35:24;;;;;;;5.10;1.43;;;6.20;99.90;;;;;;5001665;28;20214;-81
2022/04/10 03:37:51;;;;;;;4.57;1.50;;;6.10;99.90;;;;;;5003832;28;20646;-80
2022/04/10 03:40:19;;;;;;;6.30;1.80;;;6.10;99.90;;;;;;5000018;28;20204;-82
2022/04/10 03:42:47;;;;;;;4.67;1.63;;;6.10;99.90;;;;;;5004315;28;20242;-80
2022/04/10 03:45:14;;;;;;;7.23;1.40;;;6.20;99.90;;;;;;5008201;28;20867;-81
2022/04/10 03:47:41;;;;;;;9.73;1.30;;;6.20;99.90;;;;;;5002656;28;20231;-82
2022/04/10 03:50:09;;;;;;;8.70;2.40;;;6.20;99.90;;;;;;5006197;28;20778;-81
2022/04/10 03:52:35;;;;;;;7.23;1.47;;;6.20;99.90;;;;;;5006044;28;20203;-81
2022/04/10 03:55:03;;;;;;;2.73;1.10;;;6.20;99.90;;;;;;5002832;28;20207;-81
2022/04/10 03:57:31;;;;;;;4.97;1.70;;;6.30;99.90;;;;;;5001099;28;20211;-82
2022/04/10 03:59:58;;;;;;;5.03;1.23;;;6.30;99.90;;;;;;5004617;28;20233;-81
2022/04/10 04:02:25;;;;;;;6.80;1.20;;;6.30;99.90;;;;;;5004921;28;20215;-81
2022/04/10 04:04:52;;;;;;;3.63;1.00;;;6.30;99.90;;;;;;5006064;28;20210;-81
2022/04/10 04:07:19;;;;;;;7.40;1.43;;;6.30;99.90;;;;;;5005448;28;20227;-81
2022/04/10 04:09:46;;;;;;;6.70;1.30;;;6.20;99.90;;;;;;5000021;28;20203;-81
2022/04/10 04:12:13;;;;;;;7.37;1.80;;;6.20;99.90;;;;;;4998668;28;20216;-82
2022/04/10 04:14:41;;;;;;;10.60;2.00;;;6.10;99.90;;;;;;4999179;28;20228;-82
2022/04/10 04:17:08;;;;;;;8.53;1.50;;;6.20;99.90;;;;;;4992738;28;20238;-81
2022/04/10 04:19:35;;;;;;;10.33;2.17;;;6.20;99.90;;;;;;5009601;28;20305;-82
2022/04/10 04:22:02;;;;;;;5.33;1.93;;;6.20;99.90;;;;;;5000480;28;20254;-82
2022/04/10 04:24:29;;;;;;;4.23;1.40;;;6.30;99.90;;;;;;4988875;28;20208;-81
2022/04/10 04:26:56;;;;;;;4.33;1.50;;;6.40;99.90;;;;;;4989685;28;20209;-80
2022/04/10 04:29:23;;;;;;;8.50;1.47;;;6.40;99.90;;;;;;4989899;28;20315;-81
2022/04/10 04:31:52;;;;;;;5.90;1.37;;;6.40;99.90;;;;;;4990216;28;20274;-81
2022/04/10 04:34:20;;;;;;;5.03;1.53;;;6.40;99.90;;;;;;4990405;28;20208;-83
2022/04/10 04:36:47;;;;;;;9.37;1.67;;;6.50;99.90;;;;;;4988976;28;20236;-81
2022/04/10 04:39:14;;;;;;;6.20;2.03;;;6.60;99.90;;;;;;4989031;28;20200;-82
2022/04/10 04:41:41;;;;;;;16.97;5.13;;;6.60;99.90;;;;;;4990406;28;20203;-82
2022/04/10 04:44:08;;;;;;;7.40;1.57;;;6.70;99.90;;;;;;5008319;28;20207;-83
2022/04/10 04:46:35;;;;;;;7.27;2.27;;;6.60;99.90;;;;;;5003353;28;20932;-81
2022/04/10 04:49:03;;;;;;;9.77;2.47;;;6.40;99.90;;;;;;4988828;28;20239;-81
2022/04/10 04:51:34;;;;;;;6.70;1.70;;;6.20;99.90;;;;;;4988282;28;20822;-81
2022/04/10 04:54:01;;;;;;;11.93;2.77;;;6.10;99.90;;;;;;4988288;28;20318;-82
2022/04/10 04:56:27;;;;;;;5.83;1.87;;;5.90;99.90;;;;;;4988232;28;20207;-82
2022/04/10 04:58:54;;;;;;;5.20;1.97;;;5.80;99.90;;;;;;4988545;28;20196;-80
2022/04/10 05:01:22;;;;;;;7.13;1.90;;;5.60;99.90;;;;;;4997380;28;20208;-81
2022/04/10 05:03:49;;;;;;;4.27;1.33;;;5.60;99.90;;;;;;4989249;28;20212;-81
2022/04/10 05:06:17;;;;;;;6.13;1.60;;;5.60;99.90;;;;;;4989068;28;20203;-85
2022/04/10 05:08:46;;;;;;;6.20;1.97;;;5.50;99.90;;;;;;4989339;28;20292;-81
2022/04/10 05:11:13;;;;;;;4.53;1.40;;;5.40;99.90;;;;;;4988407;28;20656;-82
2022/04/10 05:13:40;;;;;;;6.23;2.10;;;5.30;99.90;;;;;;4989959;28;20211;-81
2022/04/10 05:16:08;;;;;;;5.27;1.67;;;5.30;99.90;;;;;;4989668;28;20304;-83
2022/04/10 05:18:38;;;;;;;2.43;1.40;;;5.30;99.90;;;;;;4997051;28;20222;-81
2022/04/10 05:21:05;;;;;;;7.83;1.77;;;5.20;99.90;;;;;;4994310;28;20219;-84
2022/04/10 05:23:35;;;;;;;7.37;1.57;;;5.20;99.90;;;;;;5009942;28;20207;-82
2022/04/10 05:26:02;;;;;;;10.53;1.77;;;5.30;99.90;;;;;;5005688;28;20231;-82
2022/04/10 05:28:30;;;;;;;3.30;1.20;;;5.30;99.90;;;;;;5009546;28;20219;-83
2022/04/10 05:30:57;;;;;;;5.30;1.80;;;5.40;99.90;;;;;;4991488;28;20226;-81
2022/04/10 05:35:50;;;;;;;4.73;1.27;;;5.50;99.90;;;;;;5033330;23;21040;-82
2022/04/10 05:38:16;;;;;;;2.40;1.20;;;5.50;99.90;;;;;;5023923;28;20203;-83
2022/04/10 05:40:52;;;;;;;6.10;1.20;;;5.50;99.90;;;;;;5010019;28;20206;-82
2022/04/10 05:43:19;;;;;;;4.87;1.03;;;5.50;99.90;;;;;;5008315;28;20591;-81
2022/04/10 05:45:46;;;;;;;9.50;1.53;;;5.50;99.90;;;;;;5009067;28;20218;-81
2022/04/10 05:48:12;;;;;;;3.67;1.80;;;5.60;99.90;;;;;;5007751;28;20223;-83
2022/04/10 05:50:39;;;;;;;3.57;1.20;;;5.60;99.90;;;;;;5026094;28;20221;-81
2022/04/10 05:53:06;;;;;;;5.63;1.30;;;5.60;99.90;;;;;;5026290;28;20549;-82
2022/04/10 05:55:33;;;;;;;2.13;1.10;;;5.60;99.90;;;;;;5024990;28;20496;-80
2022/04/10 05:58:02;;;;;;;7.33;1.50;;;5.70;99.90;;;;;;5007097;28;20222;-79
2022/04/10 06:00:29;;;;;;;3.87;1.17;;;5.70;99.90;;;;;;5005737;28;20227;-80
2022/04/10 06:02:56;;;;;;;4.80;1.30;;;5.70;99.90;;;;;;5005538;28;20788;-79
2022/04/10 06:05:23;;;;;;;6.20;1.13;;;5.70;99.90;;;;;;5005940;28;20222;-80
2022/04/10 06:07:50;;;;;;;5.47;1.50;;;5.80;99.90;;;;;;5005069;28;20195;-80
2022/04/10 06:10:17;;;;;;;6.03;1.73;;;5.90;99.90;;;;;;5004865;28;20214;-80
2022/04/10 06:12:43;;;;;;;7.37;1.97;;;5.90;99.90;;;;;;5005279;28;20219;-80
2022/04/10 06:15:12;;;;;;;7.17;1.30;;;6.00;99.90;;;;;;5005216;28;20211;-80
2022/04/10 06:17:39;;;;;;;19.10;6.60;;;6.10;99.90;;;;;;5005230;28;20626;-79
2022/04/10 06:20:07;;;;;;;4.63;2.10;;;6.10;99.90;;;;;;5004750;28;20255;-79
2022/04/10 06:22:34;;;;;;;3.97;1.83;;;6.20;99.90;;;;;;5004181;28;20261;-79
2022/04/10 06:25:00;;;;;;;8.03;2.77;;;6.20;99.90;;;;;;5004495;28;20602;-83
2022/04/10 06:27:27;;;;;;;5.17;2.10;;;6.30;99.90;;;;;;5005226;28;20206;-80
2022/04/10 06:29:56;;;;;;;9.67;2.70;;;6.40;99.90;;;;;;4986996;28;20235;-79
2022/04/10 06:32:24;;;;;;;6.90;1.70;;;6.50;99.90;;;;;;5005237;28;20199;-77
2022/04/10 06:34:51;;;;;;;12.03;1.80;;;6.60;99.90;;;;;;5006126;28;20257;-79
2022/04/10 06:37:18;;;;;;;7.07;1.30;;;6.70;99.90;;;;;;5010143;28;20896;-80
2022/04/10 06:39:44;;;;;;;10.07;3.07;;;6.90;99.90;;;;;;5005846;28;20910;-80
2022/04/10 06:42:12;;;;;;;4.80;1.80;;;6.90;99.90;;;;;;5005255;28;20285;-80
2022/04/10 06:44:41;;;;;;;7.60;1.90;;;7.00;99.90;;;;;;5004208;28;20227;-79
2022/04/10 06:47:08;;;;;;;7.03;2.47;;;7.00;99.90;;;;;;5001425;28;20206;-79
2022/04/10 06:49:36;;;;;;;10.07;1.77;;;7.00;99.90;;;;;;5023833;28;20229;-80
2022/04/10 06:52:03;;;;;;;8.03;1.83;;;7.00;99.90;;;;;;5022960;28;20882;-80
2022/04/10 06:54:30;;;;;;;6.70;2.87;;;7.00;99.90;;;;;;5005061;28;20227;-78
2022/04/10 06:56:57;;;;;;;6.50;2.33;;;7.10;99.90;;;;;;5004005;28;20226;-80
2022/04/10 06:59:24;;;;;;;11.07;1.60;;;7.10;99.90;;;;;;5004559;28;20226;-76
2022/04/10 07:01:51;;;;;;;4.47;1.53;;;7.10;99.90;;;;;;5005241;28;20214;-77
2022/04/10 07:04:17;;;;;;;3.90;2.30;;;7.10;99.90;;;;;;5004357;28;20211;-77
2022/04/10 07:06:46;;;;;;;5.80;3.27;;;7.10;99.90;;;;;;5005659;28;20195;-79
2022/04/10 07:09:14;;;;;;;6.97;2.70;;;7.20;99.90;;;;;;5007325;28;20219;-78
2022/04/10 07:11:41;;;;;;;9.63;2.40;;;7.30;99.90;;;;;;5007935;28;20203;-79
2022/04/10 07:14:08;;;;;;;6.97;1.43;;;7.30;99.90;;;;;;5007994;28;20215;-77
2022/04/10 07:16:34;;;;;;;9.03;2.50;;;7.40;99.90;;;;;;5008211;28;20198;-78
2022/04/10 07:19:01;;;;;;;6.23;1.90;;;7.50;99.90;;;;;;5008546;28;20202;-76
2022/04/10 07:24:14;;;;;;;5.63;1.30;;;7.60;99.90;;;;;;5007668;28;20244;-78
2022/04/10 07:26:40;;;;;;;7.13;1.60;;;7.70;99.90;;;;;;5007849;28;20234;-79
2022/04/10 07:29:10;;;;;;;8.37;1.50;;;7.80;99.90;;;;;;5008424;28;20231;-79
2022/04/10 07:31:37;;;;;;;5.27;1.30;;;7.90;99.90;;;;;;5007835;28;20215;-77
2022/04/10 07:34:04;;;;;;;4.87;1.30;;;8.00;99.90;;;;;;5018586;28;20242;-77
2022/04/10 07:36:31;;;;;;;3.63;1.00;;;8.10;99.90;;;;;;5027768;28;20199;-79
2022/04/10 07:38:58;;;;;;;5.23;1.13;;;8.20;99.90;;;;;;5019087;28;20719;-78
2022/04/10 07:41:26;;;;;;;6.17;1.23;;;8.30;99.90;;;;;;5007417;28;20286;-79
2022/04/10 07:43:53;;;;;;;7.90;1.50;;;8.30;99.90;;;;;;5008693;28;20489;-78
2022/04/10 07:49:04;;;;;;;2.33;1.13;;;8.40;99.90;;;;;;5023992;28;20218;-77
2022/04/10 07:51:32;;;;;;;6.37;2.07;;;8.50;99.90;;;;;;5026477;28;20209;-76
2022/04/10 07:53:59;;;;;;;6.60;1.97;;;8.60;99.90;;;;;;5020845;28;20251;-76
2022/04/10 07:56:27;;;;;;;3.90;1.00;;;8.60;99.90;;;;;;5007204;28;20291;-77
2022/04/10 07:58:53;;;;;;;4.93;1.37;;;8.80;99.90;;;;;;5007655;28;20204;-78
2022/04/10 08:01:20;;;;;;;7.07;1.60;;;8.90;99.90;;;;;;5005930;28;20207;-76
2022/04/10 08:03:51;;;;;;;9.43;1.50;;;9.00;99.90;;;;;;5007803;28;20204;-77
2022/04/10 08:06:18;;;;;;;6.43;0.90;;;9.10;99.90;;;;;;5007634;28;20202;-77
2022/04/10 08:08:45;;;;;;;2.90;1.20;;;9.20;99.90;;;;;;5006460;28;20234;-76
2022/04/10 08:11:13;;;;;;;5.87;1.37;;;9.30;99.90;;;;;;5006844;28;20215;-76
2022/04/10 08:13:41;;;;;;;4.20;1.47;;;9.50;99.90;;;;;;5007329;28;20237;-77
2022/04/10 08:16:07;;;;;;;7.67;1.87;;;9.60;99.90;;;;;;5006430;28;20214;-77
2022/04/10 08:18:34;;;;;;;4.30;1.07;;;9.80;99.90;;;;;;5006500;28;20222;-77
2022/04/10 08:21:01;;;;;;;6.80;1.30;;;9.90;99.90;;;;;;5006672;28;20203;-78
2022/04/10 08:23:28;;;;;;;3.90;1.17;;;9.90;99.90;;;;;;5006922;28;20199;-76
2022/04/10 08:25:55;;;;;;;7.13;2.43;;;10.00;99.90;;;;;;5006587;28;20207;-77
2022/04/10 08:28:21;;;;;;;3.73;1.00;;;10.20;99.90;;;;;;5005468;28;20207;-78
2022/04/10 08:30:49;;;;;;;6.17;1.30;;;10.30;99.90;;;;;;5007199;28;20944;-76
2022/04/10 08:33:16;;;;;;;3.67;1.10;;;10.50;99.90;;;;;;5006554;28;20219;-78
2022/04/10 08:35:43;;;;;;;4.97;1.20;;;10.60;99.90;;;;;;5005834;28;20231;-76
2022/04/10 08:38:10;;;;;;;4.10;1.40;;;10.70;99.90;;;;;;5020203;28;20221;-77
2022/04/10 08:40:37;;;;;;;5.87;1.67;;;10.70;99.90;;;;;;5025344;28;20214;-77
2022/04/10 08:43:05;;;;;;;6.57;1.30;;;10.90;99.90;;;;;;5024427;28;20214;-78
2022/04/10 08:45:32;;;;;;;6.43;2.27;;;11.00;99.90;;;;;;5026699;28;20203;-77
2022/04/10 08:48:01;;;;;;;5.43;1.40;;;10.90;99.90;;;;;;5026629;28;20206;-78
2022/04/10 08:50:28;;;;;;;5.77;1.60;;;11.00;99.90;;;;;;5024954;28;20583;-77
2022/04/10 08:52:58;;;;;;;1.90;1.17;;;11.30;99.90;;;;;;5015392;28;20245;-78
2022/04/10 08:55:24;;;;;;;5.27;1.67;;;11.40;99.90;;;;;;5006265;28;20295;-77
2022/04/10 08:57:51;;;;;;;4.17;1.00;;;11.60;99.90;;;;;;5005801;28;20941;-76
2022/04/10 09:00:20;;;;;;;2.63;1.10;;;11.60;99.90;;;;;;5006295;28;20508;-78
2022/04/10 09:02:47;;;;;;;3.67;1.00;;;11.70;99.90;;;;;;5006315;28;20821;-78
2022/04/10 09:05:19;;;;;;;5.60;1.20;;;11.80;99.90;;;;;;5007456;28;20194;-76
2022/04/10 09:08:06;;;;;;;7.90;1.03;;;11.70;99.90;;;;;;5025514;28;20218;-78
2022/04/10 09:10:53;;;;;;;3.77;1.03;;;11.60;99.90;;;;;;5004860;28;20254;-79
2022/04/10 09:13:25;;;;;;;3.50;1.00;;;11.60;99.90;;;;;;5015377;28;20329;-79
2022/04/10 09:15:53;;;;;;;6.43;1.20;;;11.60;99.90;;;;;;5025502;28;20246;-78
2022/04/10 09:18:20;;;;;;;4.70;1.30;;;11.80;99.90;;;;;;5015589;28;20211;-79
2022/04/10 09:21:06;;;;;;;2.97;1.00;;;11.90;99.90;;;;;;5005313;28;20831;-78
2022/04/10 09:23:33;;;;;;;4.20;0.90;;;12.00;99.90;;;;;;5005374;28;20221;-80
2022/04/10 09:26:00;;;;;;;4.37;1.10;;;12.20;99.90;;;;;;5005543;28;20215;-79
2022/04/10 09:28:41;;;;;;;3.33;0.80;;;12.20;99.90;;;;;;5005010;28;20510;-78
2022/04/10 09:31:32;;;;;;;8.50;1.57;;;12.30;99.90;;;;;;5004538;28;20323;-78
2022/04/10 09:34:01;;;;;;;4.70;1.30;;;12.40;99.90;;;;;;5005746;28;20516;-79
2022/04/10 09:36:35;;;;;;;3.87;0.87;;;12.50;99.90;;;;;;5017011;22;20250;-79
2022/04/10 09:39:03;;;;;;;4.30;1.03;;;12.50;99.90;;;;;;5004430;28;20701;-78
2022/04/10 09:41:30;;;;;;;2.53;0.80;;;12.50;99.90;;;;;;5004855;28;20207;-78
2022/04/10 09:44:00;;;;;;;2.83;1.20;;;12.70;99.90;;;;;;5004950;28;20203;-78
2022/04/10 09:46:29;;;;;;;3.57;1.10;;;12.70;99.90;;;;;;5003820;28;20255;-77
2022/04/10 09:48:56;;;;;;;6.00;1.63;;;12.80;99.90;;;;;;5019972;28;20289;-79
2022/04/10 09:51:23;;;;;;;3.93;1.00;;;12.90;99.90;;;;;;5018631;28;20210;-78
2022/04/10 09:54:05;;;;;;;4.17;1.33;;;12.80;99.90;;;;;;5005454;28;20760;-79
2022/04/10 09:56:32;;;;;;;4.37;0.93;;;12.90;99.90;;;;;;5006461;28;20214;-78
2022/04/10 09:59:02;;;;;;;2.97;0.90;;;13.00;99.90;;;;;;5006173;28;20203;-77
2022/04/10 10:01:29;;;;;;;4.00;1.10;;;13.10;99.90;;;;;;5005420;28;20209;-81
2022/04/10 10:03:57;;;;;;;4.10;1.40;;;13.30;99.90;;;;;;5006603;28;20210;-77
2022/04/10 10:06:26;;;;;;;7.17;1.40;;;13.50;99.90;;;;;;5005217;28;20334;-81
2022/04/10 10:08:53;;;;;;;6.43;1.53;;;13.20;99.90;;;;;;5006344;28;20285;-79
2022/04/10 10:11:22;;;;;;;5.47;1.40;;;13.20;99.90;;;;;;5005542;28;20251;-79
2022/04/10 10:13:51;;;;;;;4.57;1.40;;;13.20;99.90;;;;;;5005356;28;20222;-80
2022/04/10 10:16:18;;;;;;;4.40;1.33;;;13.30;99.90;;;;;;5007461;28;20213;-80
2022/04/10 10:18:46;;;;;;;5.07;1.20;;;13.10;99.90;;;;;;5024492;28;20194;-78
2022/04/10 10:21:15;;;;;;;5.03;1.10;;;12.90;99.90;;;;;;5013659;28;20203;-79
2022/04/10 10:23:49;;;;;;;3.77;1.50;;;13.00;99.90;;;;;;5005574;28;20206;-80
2022/04/10 10:26:43;;;;;;;5.80;1.20;;;13.00;99.90;;;;;;5004387;28;20284;-79
2022/04/10 10:29:26;;;;;;;3.87;1.10;;;12.90;99.90;;;;;;5004861;28;20206;-79
2022/04/10 10:32:06;;;;;;;5.40;1.30;;;12.90;99.90;;;;;;5024796;28;20201;-78
2022/04/10 10:34:34;;;;;;;5.67;1.33;;;12.70;99.90;;;;;;5022869;28;20514;-80
2022/04/10 10:37:03;;;;;;;5.20;1.13;;;12.80;99.90;;;;;;5025436;28;20203;-79
2022/04/10 10:39:31;;;;;;;4.90;1.30;;;12.80;99.90;;;;;;5024709;28;20199;-80
2022/04/10 10:42:12;;;;;;;7.77;1.67;;;12.70;99.90;;;;;;5014170;28;20294;-80
2022/04/10 10:44:47;;;;;;;6.53;1.33;;;12.70;99.90;;;;;;5005843;28;20579;-80
2022/04/10 10:47:19;;;;;;;5.33;1.10;;;12.70;99.90;;;;;;5005782;28;20499;-79
2022/04/10 10:49:47;;;;;;;3.13;1.03;;;12.60;99.90;;;;;;5023258;28;20229;-79
2022/04/10 10:52:15;;;;;;;5.00;1.20;;;12.50;99.90;;;;;;5004701;28;20218;-80
2022/04/10 10:54:45;;;;;;;3.97;1.20;;;12.30;99.90;;;;;;5005270;28;20223;-81
2022/04/10 10:57:38;;;;;;;7.20;1.10;;;12.30;99.90;;;;;;5008884;28;20211;-80
2022/04/10 11:00:15;;;;;;;5.77;1.03;;;12.60;99.90;;;;;;5004998;28;20862;-81
2022/04/10 11:02:48;;;;;;;5.93;1.33;;;12.70;99.90;;;;;;5007078;28;20206;-83
2022/04/10 11:05:30;;;;;;;7.40;2.50;;;12.90;99.90;;;;;;5006936;28;20207;-82
2022/04/10 11:07:58;;;;;;;3.60;1.10;;;13.20;99.90;;;;;;5007214;28;20213;-83
2022/04/10 11:10:28;;;;;;;6.60;1.50;;;13.50;99.90;;;;;;5006750;28;20223;-82
2022/04/10 11:13:01;;;;;;;4.23;1.30;;;13.60;99.90;;;;;;5008000;28;20580;-82
2022/04/10 11:15:31;;;;;;;2.30;0.90;;;13.80;99.90;;;;;;5006801;28;20227;-82
2022/04/10 11:18:19;;;;;;;6.87;1.37;;;13.70;99.90;;;;;;5007739;28;20203;-83
2022/04/10 11:20:54;;;;;;;4.17;1.10;;;13.70;99.90;;;;;;5007030;28;20210;-82
2022/04/10 11:23:22;;;;;;;5.07;1.87;;;13.70;99.90;;;;;;5007779;28;20209;-82
2022/04/10 11:25:54;;;;;;;3.00;1.00;;;13.40;99.90;;;;;;5007415;28;20211;-82
2022/04/10 11:28:24;;;;;;;4.17;0.83;;;13.40;99.90;;;;;;5007618;28;20205;-81
2022/04/10 11:30:51;;;;;;;3.00;0.93;;;13.40;99.90;;;;;;5006729;28;20227;-82
2022/04/10 11:33:18;;;;;;;3.07;1.50;;;13.50;99.90;;;;;;5019506;28;20689;-82
2022/04/10 11:35:56;;;;;;;6.63;1.20;;;13.50;99.90;;;;;;5028807;28;20242;-82
2022/04/10 11:38:25;;;;;;;4.47;0.90;;;13.60;99.90;;;;;;5028507;28;20244;-82
2022/04/10 11:40:53;;;;;;;3.47;1.10;;;13.70;99.90;;;;;;5026454;28;20198;-81
2022/04/10 11:43:23;;;;;;;2.67;1.00;;;13.80;99.90;;;;;;5008559;28;20261;-82
2022/04/10 11:45:53;;;;;;;3.83;1.00;;;13.80;99.90;;;;;;5007621;28;20290;-82
2022/04/10 11:48:22;;;;;;;4.90;0.93;;;13.90;99.90;;;;;;5017155;28;20210;-81
2022/04/10 11:50:49;;;;;;;6.33;1.30;;;13.90;99.90;;;;;;5029159;28;20289;-82
2022/04/10 11:53:16;;;;;;;3.93;1.27;;;14.10;99.90;;;;;;5028454;28;20669;-82
2022/04/10 11:55:44;;;;;;;4.33;1.93;;;14.20;99.90;;;;;;5030226;28;20206;-81
2022/04/10 11:58:16;;;;;;;6.13;1.13;;;14.10;99.90;;;;;;5011020;28;20207;-83
2022/04/10 12:00:50;;;;;;;1.93;0.83;;;14.10;99.90;;;;;;5012974;28;20281;-82
2022/04/10 12:03:18;;;;;;;3.30;1.10;;;14.20;99.90;;;;;;5009573;28;20199;-78
2022/04/10 12:05:45;;;;;;;4.03;1.00;;;14.20;99.90;;;;;;5010451;28;20211;-82
2022/04/10 12:08:12;;;;;;;2.30;0.77;;;14.30;99.90;;;;;;5011947;28;20495;-81
2022/04/10 12:10:39;;;;;;;2.20;0.70;;;14.30;99.90;;;;;;5012379;28;20219;-82
2022/04/10 12:13:07;;;;;;;4.67;1.50;;;14.40;99.90;;;;;;5010286;28;20203;-83
2022/04/10 12:15:35;;;;;;;5.40;2.17;;;14.50;99.90;;;;;;5010715;28;20207;-81
2022/04/10 12:18:08;;;;;;;3.03;0.93;;;14.40;99.90;;;;;;5008567;28;20263;-78
2022/04/10 12:20:36;;;;;;;4.30;1.20;;;14.30;99.90;;;;;;5008274;28;20314;-81
2022/04/10 12:23:15;;;;;;;4.73;1.20;;;14.30;99.90;;;;;;5009874;28;20501;-81
2022/04/10 12:25:42;;;;;;;2.73;1.30;;;14.40;99.90;;;;;;5009182;28;20202;-81
2022/04/10 12:28:09;;;;;;;3.20;1.00;;;14.60;99.90;;;;;;5008666;28;20207;-82
2022/04/10 12:30:38;;;;;;;4.23;1.07;;;14.60;99.90;;;;;;5022950;28;20547;-82
2022/04/10 12:33:06;;;;;;;3.83;0.97;;;14.60;99.90;;;;;;5027905;28;20615;-82
2022/04/10 12:35:37;;;;;;;3.85;0.90;;;14.70;99.90;;;;;;5016309;28;20242;-82
2022/04/10 12:38:04;;;;;;;4.57;0.90;;;14.70;99.90;;;;;;5007500;28;20838;-76
2022/04/10 12:40:31;;;;;;;2.53;0.97;;;14.70;99.90;;;;;;5023901;28;20226;-81
2022/04/10 12:42:59;;;;;;;3.53;0.60;;;14.70;99.90;;;;;;5030894;28;20510;-82
2022/04/10 12:45:30;;;;;;;4.87;1.30;;;14.70;99.90;;;;;;5016999;28;20207;-81
2022/04/10 12:47:58;;;;;;;4.90;1.27;;;14.70;99.90;;;;;;5016551;28;20267;-82
2022/04/10 12:50:27;;;;;;;3.40;1.30;;;14.60;99.90;;;;;;5027818;28;20237;-80
2022/04/10 12:52:55;;;;;;;5.17;0.97;;;14.20;99.90;;;;;;5016377;28;20322;-83
2022/04/10 12:55:24;;;;;;;4.47;1.20;;;14.10;99.90;;;;;;5010759;28;20247;-82
2022/04/10 12:57:55;;;;;;;7.87;1.30;;;14.20;99.90;;;;;;5010043;28;20262;-79
2022/04/10 13:00:31;;;;;;;3.10;1.37;;;14.20;99.90;;;;;;5009512;28;20203;-80
2022/04/10 13:02:59;;;;;;;6.23;1.60;;;14.30;99.90;;;;;;5008288;28;20211;-82
2022/04/10 13:05:28;;;;;;;3.47;1.07;;;14.50;99.90;;;;;;5007809;28;20211;-81
2022/04/10 13:07:56;;;;;;;4.53;1.30;;;14.60;99.90;;;;;;5007207;28;20211;-79